sensor_id;sensor_type;location;lat;lon;timestamp;temperature;humidity
59301;DHT22;45073;52.740;6.784;2022-07-19T00:02:01;20.00;99.90
59301;DHT22;45073;52.740;6.784;2022-07-19T00:04:31;19.90;99.90
59301;DHT22;45073;52.740;6.784;2022-07-19T00:06:57;19.90;99.90
59301;DHT22;45073;52.740;6.784;2022-07-19T00:09:23;19.70;99.90
59301;DHT22;45073;52.740;6.784;2022-07-19T00:11:48;19.70;99.90
59301;DHT22;45073;52.740;6.784;2022-07-19T00:14:15;19.60;99.90
59301;DHT22;45073;52.740;6.784;2022-07-19T00:16:40;19.60;99.90
59301;DHT22;45073;52.740;6.784;2022-07-19T00:19:06;19.50;99.90
59301;DHT22;45073;52.740;6.784;2022-07-19T00:21:32;19.50;99.90
59301;DHT22;45073;52.740;6.784;2022-07-19T00:23:57;19.50;99.90
59301;DHT22;45073;52.740;6.784;2022-07-19T00:26:28;19.40;99.90
59301;DHT22;45073;52.740;6.784;2022-07-19T00:28:54;19.40;99.90
59301;DHT22;45073;52.740;6.784;2022-07-19T00:31:24;19.30;99.90
59301;DHT22;45073;52.740;6.784;2022-07-19T00:33:50;19.20;99.90
59301;DHT22;45073;52.740;6.784;2022-07-19T00:36:17;19.20;99.90
59301;DHT22;45073;52.740;6.784;2022-07-19T00:38:43;19.20;99.90
59301;DHT22;45073;52.740;6.784;2022-07-19T00:41:09;19.20;99.90
59301;DHT22;45073;52.740;6.784;2022-07-19T00:43:35;19.20;99.90
59301;DHT22;45073;52.740;6.784;2022-07-19T00:46:00;19.20;99.90
59301;DHT22;45073;52.740;6.784;2022-07-19T00:48:26;19.20;99.90
59301;DHT22;45073;52.740;6.784;2022-07-19T00:50:52;19.20;99.90
59301;DHT22;45073;52.740;6.784;2022-07-19T00:53:19;19.20;99.90
59301;DHT22;45073;52.740;6.784;2022-07-19T00:55:45;19.20;99.90
59301;DHT22;45073;52.740;6.784;2022-07-19T00:58:12;19.20;99.90
59301;DHT22;45073;52.740;6.784;2022-07-19T01:00:40;19.10;99.90
59301;DHT22;45073;52.740;6.784;2022-07-19T01:03:07;19.10;99.90
59301;DHT22;45073;52.740;6.784;2022-07-19T01:05:35;19.10;99.90
59301;DHT22;45073;52.740;6.784;2022-07-19T01:08:02;19.10;99.90
59301;DHT22;45073;52.740;6.784;2022-07-19T01:10:28;19.10;99.90
59301;DHT22;45073;52.740;6.784;2022-07-19T01:12:54;19.00;99.90
59301;DHT22;45073;52.740;6.784;2022-07-19T01:15:24;19.00;99.90
59301;DHT22;45073;52.740;6.784;2022-07-19T01:17:51;19.00;99.90
59301;DHT22;45073;52.740;6.784;2022-07-19T01:20:18;19.00;99.90
59301;DHT22;45073;52.740;6.784;2022-07-19T01:22:45;18.90;99.90
59301;DHT22;45073;52.740;6.784;2022-07-19T01:25:11;18.90;99.90
59301;DHT22;45073;52.740;6.784;2022-07-19T01:27:47;18.80;99.90
59301;DHT22;45073;52.740;6.784;2022-07-19T01:30:22;18.70;99.90
59301;DHT22;45073;52.740;6.784;2022-07-19T01:32:48;18.70;99.90
59301;DHT22;45073;52.740;6.784;2022-07-19T01:35:15;18.60;99.90
59301;DHT22;45073;52.740;6.784;2022-07-19T01:37:41;18.60;99.90
59301;DHT22;45073;52.740;6.784;2022-07-19T01:40:09;18.50;99.90
59301;DHT22;45073;52.740;6.784;2022-07-19T01:42:35;18.50;99.90
59301;DHT22;45073;52.740;6.784;2022-07-19T01:45:01;18.50;99.90
59301;DHT22;45073;52.740;6.784;2022-07-19T01:47:26;18.50;99.90
59301;DHT22;45073;52.740;6.784;2022-07-19T01:49:52;18.50;99.90
59301;DHT22;45073;52.740;6.784;2022-07-19T01:52:18;18.40;99.90
59301;DHT22;45073;52.740;6.784;2022-07-19T01:54:44;18.40;99.90
59301;DHT22;45073;52.740;6.784;2022-07-19T01:57:09;18.30;99.90
59301;DHT22;45073;52.740;6.784;2022-07-19T01:59:36;18.40;99.90
59301;DHT22;45073;52.740;6.784;2022-07-19T02:02:02;18.30;99.90
59301;DHT22;45073;52.740;6.784;2022-07-19T02:04:28;18.30;99.90
59301;DHT22;45073;52.740;6.784;2022-07-19T02:06:53;18.30;99.90
59301;DHT22;45073;52.740;6.784;2022-07-19T02:09:19;18.30;99.90
59301;DHT22;45073;52.740;6.784;2022-07-19T02:11:44;18.20;99.90
59301;DHT22;45073;52.740;6.784;2022-07-19T02:14:10;18.20;99.90
59301;DHT22;45073;52.740;6.784;2022-07-19T02:16:37;18.20;99.90
59301;DHT22;45073;52.740;6.784;2022-07-19T02:19:04;18.20;99.90
59301;DHT22;45073;52.740;6.784;2022-07-19T02:21:31;18.10;99.90
59301;DHT22;45073;52.740;6.784;2022-07-19T02:23:56;18.10;99.90
59301;DHT22;45073;52.740;6.784;2022-07-19T02:26:22;18.10;99.90
59301;DHT22;45073;52.740;6.784;2022-07-19T02:28:47;18.00;99.90
59301;DHT22;45073;52.740;6.784;2022-07-19T02:31:13;18.00;99.90
59301;DHT22;45073;52.740;6.784;2022-07-19T02:33:39;18.00;99.90
59301;DHT22;45073;52.740;6.784;2022-07-19T02:36:05;17.90;99.90
59301;DHT22;45073;52.740;6.784;2022-07-19T02:38:31;17.90;99.90
59301;DHT22;45073;52.740;6.784;2022-07-19T02:40:56;17.90;99.90
59301;DHT22;45073;52.740;6.784;2022-07-19T02:43:22;17.80;99.90
59301;DHT22;45073;52.740;6.784;2022-07-19T02:45:47;17.80;99.90
59301;DHT22;45073;52.740;6.784;2022-07-19T02:48:13;17.80;99.90
59301;DHT22;45073;52.740;6.784;2022-07-19T02:50:39;17.80;99.90
59301;DHT22;45073;52.740;6.784;2022-07-19T02:53:04;17.80;99.90
59301;DHT22;45073;52.740;6.784;2022-07-19T02:55:30;17.70;99.90
59301;DHT22;45073;52.740;6.784;2022-07-19T02:57:56;17.70;99.90
59301;DHT22;45073;52.740;6.784;2022-07-19T03:00:22;17.70;99.90
59301;DHT22;45073;52.740;6.784;2022-07-19T03:02:48;17.70;99.90
59301;DHT22;45073;52.740;6.784;2022-07-19T03:05:13;17.70;99.90
59301;DHT22;45073;52.740;6.784;2022-07-19T03:07:39;17.70;99.90
59301;DHT22;45073;52.740;6.784;2022-07-19T03:10:05;17.70;99.90
59301;DHT22;45073;52.740;6.784;2022-07-19T03:12:30;17.70;99.90
59301;DHT22;45073;52.740;6.784;2022-07-19T03:14:56;17.70;99.90
59301;DHT22;45073;52.740;6.784;2022-07-19T03:17:22;17.70;99.90
59301;DHT22;45073;52.740;6.784;2022-07-19T03:19:47;17.70;99.90
59301;DHT22;45073;52.740;6.784;2022-07-19T03:22:13;17.70;99.90
59301;DHT22;45073;52.740;6.784;2022-07-19T03:24:39;17.70;99.90
59301;DHT22;45073;52.740;6.784;2022-07-19T03:27:04;17.70;99.90
59301;DHT22;45073;52.740;6.784;2022-07-19T03:29:30;17.70;99.90
59301;DHT22;45073;52.740;6.784;2022-07-19T03:31:56;17.70;99.90
59301;DHT22;45073;52.740;6.784;2022-07-19T03:34:22;17.70;99.90
59301;DHT22;45073;52.740;6.784;2022-07-19T03:36:48;17.70;99.90
59301;DHT22;45073;52.740;6.784;2022-07-19T03:39:14;17.70;99.90
59301;DHT22;45073;52.740;6.784;2022-07-19T03:41:39;17.70;99.90
59301;DHT22;45073;52.740;6.784;2022-07-19T03:44:05;17.70;99.90
59301;DHT22;45073;52.740;6.784;2022-07-19T03:46:31;17.70;99.90
59301;DHT22;45073;52.740;6.784;2022-07-19T03:48:57;17.70;99.90
59301;DHT22;45073;52.740;6.784;2022-07-19T03:51:23;17.70;99.90
59301;DHT22;45073;52.740;6.784;2022-07-19T03:53:49;17.60;99.90
59301;DHT22;45073;52.740;6.784;2022-07-19T03:56:15;17.60;99.90
59301;DHT22;45073;52.740;6.784;2022-07-19T03:58:43;17.60;99.90
59301;DHT22;45073;52.740;6.784;2022-07-19T04:01:09;17.60;99.90
59301;DHT22;45073;52.740;6.784;2022-07-19T04:03:38;17.50;99.90
59301;DHT22;45073;52.740;6.784;2022-07-19T04:06:05;17.50;99.90
59301;DHT22;45073;52.740;6.784;2022-07-19T04:08:31;17.50;99.90
59301;DHT22;45073;52.740;6.784;2022-07-19T04:10:57;17.50;99.90
59301;DHT22;45073;52.740;6.784;2022-07-19T04:13:23;17.50;99.90
59301;DHT22;45073;52.740;6.784;2022-07-19T04:15:49;17.60;99.90
59301;DHT22;45073;52.740;6.784;2022-07-19T04:18:14;17.60;99.90
59301;DHT22;45073;52.740;6.784;2022-07-19T04:20:40;17.60;99.90
59301;DHT22;45073;52.740;6.784;2022-07-19T04:23:05;17.60;99.90
59301;DHT22;45073;52.740;6.784;2022-07-19T04:25:31;17.70;99.90
59301;DHT22;45073;52.740;6.784;2022-07-19T04:27:56;17.70;99.90
59301;DHT22;45073;52.740;6.784;2022-07-19T04:30:22;17.80;99.90
59301;DHT22;45073;52.740;6.784;2022-07-19T04:32:48;17.80;99.90
59301;DHT22;45073;52.740;6.784;2022-07-19T04:35:13;17.80;99.90
59301;DHT22;45073;52.740;6.784;2022-07-19T04:37:41;17.80;99.90
59301;DHT22;45073;52.740;6.784;2022-07-19T04:40:08;17.80;99.90
59301;DHT22;45073;52.740;6.784;2022-07-19T04:42:33;17.80;99.90
59301;DHT22;45073;52.740;6.784;2022-07-19T04:44:59;17.80;99.90
59301;DHT22;45073;52.740;6.784;2022-07-19T04:47:25;17.90;99.90
59301;DHT22;45073;52.740;6.784;2022-07-19T04:49:50;17.90;99.90
59301;DHT22;45073;52.740;6.784;2022-07-19T04:52:16;17.90;99.90
59301;DHT22;45073;52.740;6.784;2022-07-19T04:54:42;18.00;99.90
59301;DHT22;45073;52.740;6.784;2022-07-19T04:57:07;18.00;99.90
59301;DHT22;45073;52.740;6.784;2022-07-19T04:59:33;18.10;99.90
59301;DHT22;45073;52.740;6.784;2022-07-19T05:01:58;18.20;99.90
59301;DHT22;45073;52.740;6.784;2022-07-19T05:04:24;18.20;99.90
59301;DHT22;45073;52.740;6.784;2022-07-19T05:06:50;18.20;99.90
59301;DHT22;45073;52.740;6.784;2022-07-19T05:09:25;18.30;99.90
59301;DHT22;45073;52.740;6.784;2022-07-19T05:11:51;18.30;99.90
59301;DHT22;45073;52.740;6.784;2022-07-19T05:14:18;18.40;99.90
59301;DHT22;45073;52.740;6.784;2022-07-19T05:16:44;18.40;99.90
59301;DHT22;45073;52.740;6.784;2022-07-19T05:19:10;18.50;99.90
59301;DHT22;45073;52.740;6.784;2022-07-19T05:21:35;18.50;99.90
59301;DHT22;45073;52.740;6.784;2022-07-19T05:24:01;18.50;99.90
59301;DHT22;45073;52.740;6.784;2022-07-19T05:26:27;18.60;99.90
59301;DHT22;45073;52.740;6.784;2022-07-19T05:28:52;18.60;99.90
59301;DHT22;45073;52.740;6.784;2022-07-19T05:31:18;18.70;99.90
59301;DHT22;45073;52.740;6.784;2022-07-19T05:33:44;18.80;99.90
59301;DHT22;45073;52.740;6.784;2022-07-19T05:36:09;18.80;99.90
59301;DHT22;45073;52.740;6.784;2022-07-19T05:38:39;18.80;99.90
59301;DHT22;45073;52.740;6.784;2022-07-19T05:41:06;18.90;99.90
59301;DHT22;45073;52.740;6.784;2022-07-19T05:43:34;18.90;99.90
59301;DHT22;45073;52.740;6.784;2022-07-19T05:46:00;19.00;99.90
59301;DHT22;45073;52.740;6.784;2022-07-19T05:48:26;19.10;99.90
59301;DHT22;45073;52.740;6.784;2022-07-19T05:50:51;19.10;99.90
59301;DHT22;45073;52.740;6.784;2022-07-19T05:53:17;19.20;99.90
59301;DHT22;45073;52.740;6.784;2022-07-19T05:55:44;19.30;99.90
59301;DHT22;45073;52.740;6.784;2022-07-19T05:58:10;19.40;99.90
59301;DHT22;45073;52.740;6.784;2022-07-19T06:00:35;19.50;99.90
59301;DHT22;45073;52.740;6.784;2022-07-19T06:03:01;19.50;99.90
59301;DHT22;45073;52.740;6.784;2022-07-19T06:05:26;19.60;99.90
59301;DHT22;45073;52.740;6.784;2022-07-19T06:07:52;19.70;99.90
59301;DHT22;45073;52.740;6.784;2022-07-19T06:10:18;19.80;99.90
59301;DHT22;45073;52.740;6.784;2022-07-19T06:12:43;19.80;99.90
59301;DHT22;45073;52.740;6.784;2022-07-19T06:15:09;19.90;99.90
59301;DHT22;45073;52.740;6.784;2022-07-19T06:17:35;20.00;99.90
59301;DHT22;45073;52.740;6.784;2022-07-19T06:20:01;20.10;99.90
59301;DHT22;45073;52.740;6.784;2022-07-19T06:22:30;20.20;99.90
59301;DHT22;45073;52.740;6.784;2022-07-19T06:24:56;20.30;99.90
59301;DHT22;45073;52.740;6.784;2022-07-19T06:27:22;20.40;99.90
59301;DHT22;45073;52.740;6.784;2022-07-19T06:29:48;20.40;99.90
59301;DHT22;45073;52.740;6.784;2022-07-19T06:32:13;20.50;99.90
59301;DHT22;45073;52.740;6.784;2022-07-19T06:34:39;20.60;99.90
59301;DHT22;45073;52.740;6.784;2022-07-19T06:37:05;20.80;99.90
59301;DHT22;45073;52.740;6.784;2022-07-19T06:39:30;20.80;99.90
59301;DHT22;45073;52.740;6.784;2022-07-19T06:41:56;20.90;99.90
59301;DHT22;45073;52.740;6.784;2022-07-19T06:44:21;21.00;99.90
59301;DHT22;45073;52.740;6.784;2022-07-19T06:46:47;21.10;99.90
59301;DHT22;45073;52.740;6.784;2022-07-19T06:49:13;21.20;99.90
59301;DHT22;45073;52.740;6.784;2022-07-19T06:51:38;21.30;99.90
59301;DHT22;45073;52.740;6.784;2022-07-19T06:54:04;21.40;99.90
59301;DHT22;45073;52.740;6.784;2022-07-19T06:56:29;21.50;99.90
59301;DHT22;45073;52.740;6.784;2022-07-19T06:58:55;21.60;99.90
59301;DHT22;45073;52.740;6.784;2022-07-19T07:01:21;21.70;99.90
59301;DHT22;45073;52.740;6.784;2022-07-19T07:03:46;21.80;99.90
59301;DHT22;45073;52.740;6.784;2022-07-19T07:06:12;21.90;99.90
59301;DHT22;45073;52.740;6.784;2022-07-19T07:08:38;21.90;99.90
59301;DHT22;45073;52.740;6.784;2022-07-19T07:11:03;22.00;99.90
59301;DHT22;45073;52.740;6.784;2022-07-19T07:13:29;22.20;99.90
59301;DHT22;45073;52.740;6.784;2022-07-19T07:15:54;22.20;99.90
59301;DHT22;45073;52.740;6.784;2022-07-19T07:18:20;22.30;99.90
59301;DHT22;45073;52.740;6.784;2022-07-19T07:20:46;22.50;99.90
59301;DHT22;45073;52.740;6.784;2022-07-19T07:23:11;22.50;99.90
59301;DHT22;45073;52.740;6.784;2022-07-19T07:25:37;22.60;99.90
59301;DHT22;45073;52.740;6.784;2022-07-19T07:28:03;22.70;99.90
59301;DHT22;45073;52.740;6.784;2022-07-19T07:30:28;22.80;99.90
59301;DHT22;45073;52.740;6.784;2022-07-19T07:32:54;22.90;99.90
59301;DHT22;45073;52.740;6.784;2022-07-19T07:35:19;23.10;99.90
59301;DHT22;45073;52.740;6.784;2022-07-19T07:37:45;23.20;99.90
59301;DHT22;45073;52.740;6.784;2022-07-19T07:40:11;23.30;99.90
59301;DHT22;45073;52.740;6.784;2022-07-19T07:42:37;23.40;99.90
59301;DHT22;45073;52.740;6.784;2022-07-19T07:45:03;23.50;99.90
59301;DHT22;45073;52.740;6.784;2022-07-19T07:47:28;23.60;99.90
59301;DHT22;45073;52.740;6.784;2022-07-19T07:49:54;23.70;99.90
59301;DHT22;45073;52.740;6.784;2022-07-19T07:52:20;23.80;99.90
59301;DHT22;45073;52.740;6.784;2022-07-19T07:54:45;23.90;99.90
59301;DHT22;45073;52.740;6.784;2022-07-19T07:57:12;24.00;99.90
59301;DHT22;45073;52.740;6.784;2022-07-19T07:59:38;24.10;99.90
59301;DHT22;45073;52.740;6.784;2022-07-19T08:02:04;24.30;99.90
59301;DHT22;45073;52.740;6.784;2022-07-19T08:04:29;24.40;99.90
59301;DHT22;45073;52.740;6.784;2022-07-19T08:06:55;24.50;99.90
59301;DHT22;45073;52.740;6.784;2022-07-19T08:09:21;24.60;99.90
59301;DHT22;45073;52.740;6.784;2022-07-19T08:11:46;24.70;99.90
59301;DHT22;45073;52.740;6.784;2022-07-19T08:14:12;24.80;99.90
59301;DHT22;45073;52.740;6.784;2022-07-19T08:16:38;24.90;99.90
59301;DHT22;45073;52.740;6.784;2022-07-19T08:19:03;25.00;99.90
59301;DHT22;45073;52.740;6.784;2022-07-19T08:21:29;25.10;99.90
59301;DHT22;45073;52.740;6.784;2022-07-19T08:23:55;25.20;99.90
59301;DHT22;45073;52.740;6.784;2022-07-19T08:26:21;25.30;99.90
59301;DHT22;45073;52.740;6.784;2022-07-19T08:28:46;25.40;99.90
59301;DHT22;45073;52.740;6.784;2022-07-19T08:31:14;25.50;99.90
59301;DHT22;45073;52.740;6.784;2022-07-19T08:33:40;25.60;99.90
59301;DHT22;45073;52.740;6.784;2022-07-19T08:36:07;25.70;99.90
59301;DHT22;45073;52.740;6.784;2022-07-19T08:38:35;25.90;99.90
59301;DHT22;45073;52.740;6.784;2022-07-19T08:41:01;26.00;99.90
59301;DHT22;45073;52.740;6.784;2022-07-19T08:43:27;26.10;99.90
59301;DHT22;45073;52.740;6.784;2022-07-19T08:45:53;26.20;99.90
59301;DHT22;45073;52.740;6.784;2022-07-19T08:48:19;26.30;99.80
59301;DHT22;45073;52.740;6.784;2022-07-19T08:50:46;26.40;98.60
59301;DHT22;45073;52.740;6.784;2022-07-19T08:53:14;26.50;98.20
59301;DHT22;45073;52.740;6.784;2022-07-19T08:55:40;26.70;98.90
59301;DHT22;45073;52.740;6.784;2022-07-19T08:58:06;26.70;98.40
59301;DHT22;45073;52.740;6.784;2022-07-19T09:00:33;26.90;98.40
59301;DHT22;45073;52.740;6.784;2022-07-19T09:03:07;27.00;95.40
59301;DHT22;45073;52.740;6.784;2022-07-19T09:05:34;27.10;92.40
59301;DHT22;45073;52.740;6.784;2022-07-19T09:08:12;27.20;95.00
59301;DHT22;45073;52.740;6.784;2022-07-19T09:10:41;27.30;93.60
59301;DHT22;45073;52.740;6.784;2022-07-19T09:13:13;27.40;94.60
59301;DHT22;45073;52.740;6.784;2022-07-19T09:15:41;27.60;90.90
59301;DHT22;45073;52.740;6.784;2022-07-19T09:18:14;27.70;87.10
59301;DHT22;45073;52.740;6.784;2022-07-19T09:20:40;27.80;86.80
59301;DHT22;45073;52.740;6.784;2022-07-19T09:23:07;27.80;85.40
59301;DHT22;45073;52.740;6.784;2022-07-19T09:27:59;28.10;79.90
59301;DHT22;45073;52.740;6.784;2022-07-19T09:30:43;28.20;72.90
59301;DHT22;45073;52.740;6.784;2022-07-19T09:33:13;28.30;77.70
59301;DHT22;45073;52.740;6.784;2022-07-19T09:38:26;28.50;75.70
59301;DHT22;45073;52.740;6.784;2022-07-19T09:41:07;28.70;71.00
59301;DHT22;45073;52.740;6.784;2022-07-19T09:43:53;28.80;70.10
59301;DHT22;45073;52.740;6.784;2022-07-19T09:48:54;29.10;65.50
59301;DHT22;45073;52.740;6.784;2022-07-19T09:51:26;29.10;67.20
59301;DHT22;45073;52.740;6.784;2022-07-19T09:53:52;29.20;66.20
59301;DHT22;45073;52.740;6.784;2022-07-19T09:56:18;29.30;64.00
59301;DHT22;45073;52.740;6.784;2022-07-19T09:58:45;29.40;64.20
59301;DHT22;45073;52.740;6.784;2022-07-19T10:01:12;29.50;65.10
59301;DHT22;45073;52.740;6.784;2022-07-19T10:03:38;29.60;64.00
59301;DHT22;45073;52.740;6.784;2022-07-19T10:06:04;29.70;65.10
59301;DHT22;45073;52.740;6.784;2022-07-19T10:08:30;29.80;61.60
59301;DHT22;45073;52.740;6.784;2022-07-19T10:10:55;29.90;60.90
59301;DHT22;45073;52.740;6.784;2022-07-19T10:13:21;30.00;62.80
59301;DHT22;45073;52.740;6.784;2022-07-19T10:15:48;30.10;61.10
59301;DHT22;45073;52.740;6.784;2022-07-19T10:18:17;30.20;60.20
59301;DHT22;45073;52.740;6.784;2022-07-19T10:20:49;30.30;61.30
59301;DHT22;45073;52.740;6.784;2022-07-19T10:23:16;30.40;58.60
59301;DHT22;45073;52.740;6.784;2022-07-19T10:25:47;30.50;56.00
59301;DHT22;45073;52.740;6.784;2022-07-19T10:28:36;30.60;56.10
59301;DHT22;45073;52.740;6.784;2022-07-19T10:31:22;30.70;55.80
59301;DHT22;45073;52.740;6.784;2022-07-19T10:33:58;30.80;55.60
59301;DHT22;45073;52.740;6.784;2022-07-19T10:36:44;30.90;56.30
59301;DHT22;45073;52.740;6.784;2022-07-19T10:39:27;31.00;53.20
59301;DHT22;45073;52.740;6.784;2022-07-19T10:42:14;31.10;54.60
59301;DHT22;45073;52.740;6.784;2022-07-19T10:50:02;31.40;52.10
59301;DHT22;45073;52.740;6.784;2022-07-19T10:57:42;31.70;51.70
59301;DHT22;45073;52.740;6.784;2022-07-19T11:00:30;31.80;49.10
59301;DHT22;45073;52.740;6.784;2022-07-19T11:05:58;32.00;49.50
59301;DHT22;45073;52.740;6.784;2022-07-19T11:11:08;32.20;47.50
59301;DHT22;45073;52.740;6.784;2022-07-19T11:13:35;32.40;47.60
59301;DHT22;45073;52.740;6.784;2022-07-19T11:16:01;32.40;47.70
59301;DHT22;45073;52.740;6.784;2022-07-19T11:18:29;32.60;48.10
59301;DHT22;45073;52.740;6.784;2022-07-19T11:20:57;32.70;48.60
59301;DHT22;45073;52.740;6.784;2022-07-19T11:23:24;32.80;47.90
59301;DHT22;45073;52.740;6.784;2022-07-19T11:25:49;32.90;44.40
59301;DHT22;45073;52.740;6.784;2022-07-19T11:28:23;32.90;46.00
59301;DHT22;45073;52.740;6.784;2022-07-19T11:30:50;33.10;44.60
59301;DHT22;45073;52.740;6.784;2022-07-19T11:33:19;33.10;43.80
59301;DHT22;45073;52.740;6.784;2022-07-19T11:35:58;33.20;44.30
59301;DHT22;45073;52.740;6.784;2022-07-19T11:38:40;33.40;47.70
59301;DHT22;45073;52.740;6.784;2022-07-19T11:41:24;33.50;44.50
59301;DHT22;45073;52.740;6.784;2022-07-19T11:46:29;33.70;42.50
59301;DHT22;45073;52.740;6.784;2022-07-19T11:48:57;33.70;41.70
59301;DHT22;45073;52.740;6.784;2022-07-19T11:51:23;33.80;43.00
59301;DHT22;45073;52.740;6.784;2022-07-19T11:53:51;33.90;43.30
59301;DHT22;45073;52.740;6.784;2022-07-19T11:56:26;34.00;40.80
59301;DHT22;45073;52.740;6.784;2022-07-19T11:58:53;34.10;40.40
59301;DHT22;45073;52.740;6.784;2022-07-19T12:03:57;34.10;39.80
59301;DHT22;45073;52.740;6.784;2022-07-19T12:06:39;34.30;39.70
59301;DHT22;45073;52.740;6.784;2022-07-19T12:09:19;34.40;41.90
59301;DHT22;45073;52.740;6.784;2022-07-19T12:11:53;34.50;42.10
59301;DHT22;45073;52.740;6.784;2022-07-19T12:14:27;34.60;40.30
59301;DHT22;45073;52.740;6.784;2022-07-19T12:17:18;34.70;40.90
59301;DHT22;45073;52.740;6.784;2022-07-19T12:19:47;34.80;39.70
59301;DHT22;45073;52.740;6.784;2022-07-19T12:22:32;34.90;40.80
59301;DHT22;45073;52.740;6.784;2022-07-19T12:24:58;35.00;39.30
59301;DHT22;45073;52.740;6.784;2022-07-19T12:27:23;35.10;39.90
59301;DHT22;45073;52.740;6.784;2022-07-19T12:29:53;35.10;38.60
59301;DHT22;45073;52.740;6.784;2022-07-19T12:34:56;35.20;38.90
59301;DHT22;45073;52.740;6.784;2022-07-19T12:40:06;35.40;38.50
59301;DHT22;45073;52.740;6.784;2022-07-19T12:45:26;35.60;39.30
59301;DHT22;45073;52.740;6.784;2022-07-19T12:47:53;35.70;39.30
59301;DHT22;45073;52.740;6.784;2022-07-19T12:52:52;35.70;35.60
59301;DHT22;45073;52.740;6.784;2022-07-19T12:55:18;35.70;37.30
59301;DHT22;45073;52.740;6.784;2022-07-19T12:57:45;35.80;37.10
59301;DHT22;45073;52.740;6.784;2022-07-19T13:00:11;35.80;36.50
59301;DHT22;45073;52.740;6.784;2022-07-19T13:02:36;35.90;36.60
59301;DHT22;45073;52.740;6.784;2022-07-19T13:05:03;35.90;35.50
59301;DHT22;45073;52.740;6.784;2022-07-19T13:07:30;35.90;35.00
59301;DHT22;45073;52.740;6.784;2022-07-19T13:09:55;35.90;34.70
59301;DHT22;45073;52.740;6.784;2022-07-19T13:12:21;35.90;34.30
59301;DHT22;45073;52.740;6.784;2022-07-19T13:14:47;36.10;35.70
59301;DHT22;45073;52.740;6.784;2022-07-19T13:17:12;36.10;35.20
59301;DHT22;45073;52.740;6.784;2022-07-19T13:19:39;36.20;35.20
59301;DHT22;45073;52.740;6.784;2022-07-19T13:22:05;36.30;34.30
59301;DHT22;45073;52.740;6.784;2022-07-19T13:24:31;36.30;34.10
59301;DHT22;45073;52.740;6.784;2022-07-19T13:26:56;36.40;35.30
59301;DHT22;45073;52.740;6.784;2022-07-19T13:29:22;36.50;36.10
59301;DHT22;45073;52.740;6.784;2022-07-19T13:31:48;36.60;34.70
59301;DHT22;45073;52.740;6.784;2022-07-19T13:34:14;36.70;35.40
59301;DHT22;45073;52.740;6.784;2022-07-19T13:36:40;36.70;34.20
59301;DHT22;45073;52.740;6.784;2022-07-19T13:39:06;36.70;34.30
59301;DHT22;45073;52.740;6.784;2022-07-19T13:41:34;36.70;34.70
59301;DHT22;45073;52.740;6.784;2022-07-19T13:44:00;36.80;35.00
59301;DHT22;45073;52.740;6.784;2022-07-19T13:46:26;36.90;33.10
59301;DHT22;45073;52.740;6.784;2022-07-19T13:48:51;36.90;33.40
59301;DHT22;45073;52.740;6.784;2022-07-19T13:51:17;37.00;35.00
59301;DHT22;45073;52.740;6.784;2022-07-19T13:53:45;37.00;34.10
59301;DHT22;45073;52.740;6.784;2022-07-19T13:56:11;37.00;33.50
59301;DHT22;45073;52.740;6.784;2022-07-19T13:58:37;37.00;33.00
59301;DHT22;45073;52.740;6.784;2022-07-19T14:01:03;37.00;32.50
59301;DHT22;45073;52.740;6.784;2022-07-19T14:03:28;36.90;32.60
59301;DHT22;45073;52.740;6.784;2022-07-19T14:05:54;37.00;33.90
59301;DHT22;45073;52.740;6.784;2022-07-19T14:08:21;37.00;34.30
59301;DHT22;45073;52.740;6.784;2022-07-19T14:10:46;37.00;34.50
59301;DHT22;45073;52.740;6.784;2022-07-19T14:13:12;37.10;34.00
59301;DHT22;45073;52.740;6.784;2022-07-19T14:15:39;37.20;33.80
59301;DHT22;45073;52.740;6.784;2022-07-19T14:18:04;37.30;34.70
59301;DHT22;45073;52.740;6.784;2022-07-19T14:20:30;37.30;33.40
59301;DHT22;45073;52.740;6.784;2022-07-19T14:22:55;37.30;32.70
59301;DHT22;45073;52.740;6.784;2022-07-19T14:25:21;37.30;32.30
59301;DHT22;45073;52.740;6.784;2022-07-19T14:27:48;37.40;32.70
59301;DHT22;45073;52.740;6.784;2022-07-19T14:30:14;37.40;32.70
59301;DHT22;45073;52.740;6.784;2022-07-19T14:32:40;37.40;32.70
59301;DHT22;45073;52.740;6.784;2022-07-19T14:35:06;37.40;32.30
59301;DHT22;45073;52.740;6.784;2022-07-19T14:37:32;37.40;32.00
59301;DHT22;45073;52.740;6.784;2022-07-19T14:39:57;37.40;31.30
59301;DHT22;45073;52.740;6.784;2022-07-19T14:42:23;37.50;33.30
59301;DHT22;45073;52.740;6.784;2022-07-19T14:44:48;37.50;34.00
59301;DHT22;45073;52.740;6.784;2022-07-19T14:47:14;37.60;34.80
59301;DHT22;45073;52.740;6.784;2022-07-19T14:49:40;37.60;35.50
59301;DHT22;45073;52.740;6.784;2022-07-19T14:52:06;37.70;33.80
59301;DHT22;45073;52.740;6.784;2022-07-19T14:54:31;37.70;33.70
59301;DHT22;45073;52.740;6.784;2022-07-19T14:56:57;37.60;32.90
59301;DHT22;45073;52.740;6.784;2022-07-19T14:59:24;37.70;32.50
59301;DHT22;45073;52.740;6.784;2022-07-19T15:01:50;37.70;32.90
59301;DHT22;45073;52.740;6.784;2022-07-19T15:04:17;37.60;32.50
59301;DHT22;45073;52.740;6.784;2022-07-19T15:06:43;37.60;32.60
59301;DHT22;45073;52.740;6.784;2022-07-19T15:09:10;37.60;32.30
59301;DHT22;45073;52.740;6.784;2022-07-19T15:11:36;37.60;32.90
59301;DHT22;45073;52.740;6.784;2022-07-19T15:14:02;37.60;32.70
59301;DHT22;45073;52.740;6.784;2022-07-19T15:16:28;37.60;33.30
59301;DHT22;45073;52.740;6.784;2022-07-19T15:18:53;37.60;33.90
59301;DHT22;45073;52.740;6.784;2022-07-19T15:21:19;37.50;34.10
59301;DHT22;45073;52.740;6.784;2022-07-19T15:23:45;37.50;33.30
59301;DHT22;45073;52.740;6.784;2022-07-19T15:26:11;37.50;34.10
59301;DHT22;45073;52.740;6.784;2022-07-19T15:28:37;37.50;36.30
59301;DHT22;45073;52.740;6.784;2022-07-19T15:31:06;37.50;35.30
59301;DHT22;45073;52.740;6.784;2022-07-19T15:33:32;37.50;35.20
59301;DHT22;45073;52.740;6.784;2022-07-19T15:35:58;37.50;34.10
59301;DHT22;45073;52.740;6.784;2022-07-19T15:38:24;37.40;33.80
59301;DHT22;45073;52.740;6.784;2022-07-19T15:40:49;37.40;33.20
59301;DHT22;45073;52.740;6.784;2022-07-19T15:43:16;37.30;32.60
59301;DHT22;45073;52.740;6.784;2022-07-19T15:45:41;37.30;32.80
59301;DHT22;45073;52.740;6.784;2022-07-19T15:48:08;37.20;34.10
59301;DHT22;45073;52.740;6.784;2022-07-19T15:50:34;37.20;33.70
59301;DHT22;45073;52.740;6.784;2022-07-19T15:53:03;37.20;34.00
59301;DHT22;45073;52.740;6.784;2022-07-19T15:55:29;37.20;33.40
59301;DHT22;45073;52.740;6.784;2022-07-19T15:57:55;37.20;33.60
59301;DHT22;45073;52.740;6.784;2022-07-19T16:00:20;37.20;36.10
59301;DHT22;45073;52.740;6.784;2022-07-19T16:02:46;37.20;35.80
59301;DHT22;45073;52.740;6.784;2022-07-19T16:05:12;37.20;34.70
59301;DHT22;45073;52.740;6.784;2022-07-19T16:07:38;37.20;34.70
59301;DHT22;45073;52.740;6.784;2022-07-19T16:10:05;37.20;35.10